createdAt,value
2018-04-09T00:01:35.805Z,74.70
2018-04-09T00:04:03.330Z,74.10
2018-04-09T00:06:31.653Z,71.90
2018-04-09T00:08:59.182Z,71.90
2018-04-09T00:11:26.710Z,73.70
2018-04-09T00:13:54.265Z,73.40
2018-04-09T00:16:21.798Z,73.00
2018-04-09T00:18:50.310Z,73.60
2018-04-09T00:21:18.810Z,73.60
2018-04-09T00:23:46.383Z,73.80
2018-04-09T00:26:14.849Z,74.00
2018-04-09T00:28:42.377Z,73.90
2018-04-09T00:31:09.937Z,73.90
2018-04-09T00:33:37.462Z,74.30
2018-04-09T00:36:05.018Z,73.60
2018-04-09T00:38:32.558Z,74.10
2018-04-09T00:41:00.118Z,74.40
2018-04-09T00:43:27.637Z,74.40
2018-04-09T00:45:55.202Z,74.80
2018-04-09T00:48:22.814Z,74.50
2018-04-09T00:50:50.318Z,74.20
2018-04-09T00:53:17.862Z,74.40
2018-04-09T00:55:45.386Z,75.60
2018-04-09T00:58:12.958Z,75.20
2018-04-09T01:00:40.478Z,73.60
2018-04-09T01:03:08.040Z,73.70
2018-04-09T01:05:35.581Z,73.20
2018-04-09T01:08:03.894Z,73.70
2018-04-09T01:10:31.413Z,73.70
2018-04-09T01:12:59.731Z,74.10
2018-04-09T01:15:27.260Z,74.10
2018-04-09T01:17:54.790Z,74.60
2018-04-09T01:20:22.342Z,74.10
2018-04-09T01:22:49.854Z,74.70
2018-04-09T01:25:19.346Z,75.30
2018-04-09T01:27:47.637Z,76.40
2018-04-09T01:30:16.141Z,76.40
2018-04-09T01:32:43.657Z,75.00
2018-04-09T01:35:11.945Z,75.30
2018-04-09T01:37:39.502Z,75.30
2018-04-09T01:40:07.027Z,76.20
2018-04-09T01:42:34.590Z,76.30
2018-04-09T01:45:02.127Z,76.50
2018-04-09T01:47:29.672Z,76.00
2018-04-09T01:49:57.198Z,77.30
2018-04-09T01:52:24.752Z,76.90
2018-04-09T01:54:53.050Z,77.40
2018-04-09T01:57:20.578Z,77.30
2018-04-09T01:59:48.134Z,77.90
2018-04-09T02:02:15.669Z,78.10
2018-04-09T02:04:43.219Z,78.40
2018-04-09T02:07:10.741Z,78.80
2018-04-09T02:09:38.293Z,78.80
2018-04-09T02:12:05.825Z,78.70
2018-04-09T02:14:34.140Z,78.90
2018-04-09T02:17:01.670Z,78.90
2018-04-09T02:19:29.193Z,79.20
2018-04-09T02:21:56.776Z,78.90
2018-04-09T02:24:24.311Z,79.10
2018-04-09T02:26:51.877Z,78.60
2018-04-09T02:29:19.398Z,79.40
2018-04-09T02:31:46.947Z,80.00
2018-04-09T02:34:14.475Z,80.50
2018-04-09T02:36:43.032Z,80.90
2018-04-09T02:39:10.566Z,80.80
2018-04-09T02:41:38.088Z,80.90
2018-04-09T02:44:05.646Z,80.20
2018-04-09T02:46:34.172Z,80.60
2018-04-09T02:49:02.688Z,80.60
2018-04-09T02:51:30.214Z,80.80
2018-04-09T02:53:57.765Z,81.50
2018-04-09T02:56:27.296Z,81.70
2018-04-09T02:58:54.874Z,82.10
2018-04-09T03:01:23.161Z,82.40
2018-04-09T03:03:50.694Z,82.40
2018-04-09T03:06:18.254Z,82.40
2018-04-09T03:08:45.802Z,82.20
2018-04-09T03:11:14.319Z,82.00
2018-04-09T03:13:41.854Z,81.30
2018-04-09T03:16:09.419Z,81.20
2018-04-09T03:18:36.936Z,81.90
2018-04-09T03:21:04.460Z,81.60
2018-04-09T03:23:32.014Z,81.60
2018-04-09T03:26:00.308Z,81.10
2018-04-09T03:28:27.855Z,81.20
2018-04-09T03:30:55.379Z,82.20
2018-04-09T03:33:22.933Z,82.20
2018-04-09T03:35:50.467Z,82.90
2018-04-09T03:38:17.989Z,82.70
2018-04-09T03:40:45.534Z,82.40
2018-04-09T03:43:13.068Z,82.90
2018-04-09T03:45:40.631Z,82.30
2018-04-09T03:48:08.155Z,82.80
2018-04-09T03:50:35.706Z,82.50
2018-04-09T03:53:03.235Z,83.40
2018-04-09T03:55:31.530Z,83.10
2018-04-09T03:57:59.088Z,83.10
2018-04-09T04:00:26.625Z,83.50
2018-04-09T04:02:54.935Z,83.20
2018-04-09T04:05:22.751Z,83.20
2018-04-09T04:07:50.293Z,83.30
2018-04-09T04:10:17.831Z,84.40
2018-04-09T04:12:45.364Z,83.80
2018-04-09T04:15:12.917Z,83.80
2018-04-09T04:17:52.274Z,84.00
2018-04-09T04:20:31.703Z,85.00
2018-04-09T04:22:59.246Z,84.60
2018-04-09T04:25:26.805Z,84.40
2018-04-09T04:27:54.327Z,84.40
2018-04-09T04:30:21.886Z,84.00
2018-04-09T04:32:49.415Z,84.60
2018-04-09T04:35:16.941Z,84.90
2018-04-09T04:37:44.490Z,85.80
2018-04-09T04:40:12.790Z,86.10
2018-04-09T04:42:40.351Z,86.10
2018-04-09T04:45:08.217Z,87.00
2018-04-09T04:47:35.828Z,86.70
2018-04-09T04:50:04.124Z,86.10
2018-04-09T04:52:32.607Z,86.10
2018-04-09T04:55:00.155Z,86.30
2018-04-09T04:57:28.447Z,86.50
2018-04-09T04:59:58.719Z,86.40
2018-04-09T05:02:26.247Z,86.40
2018-04-09T05:04:53.809Z,86.70
2018-04-09T05:07:21.333Z,86.90
2018-04-09T05:09:50.590Z,86.60
2018-04-09T05:12:18.143Z,86.60
2018-04-09T05:14:45.667Z,87.00
2018-04-09T05:17:13.222Z,87.40
2018-04-09T05:19:40.755Z,87.50
2018-04-09T05:22:09.119Z,86.80
2018-04-09T05:24:37.422Z,87.10
2018-04-09T05:27:06.702Z,87.00
2018-04-09T05:29:35.025Z,86.70
2018-04-09T05:32:02.594Z,86.60
2018-04-09T05:34:31.133Z,85.10
2018-04-09T05:36:58.679Z,83.10
2018-04-09T05:39:26.254Z,82.50
2018-04-09T05:41:53.786Z,82.40
2018-04-09T05:44:21.313Z,83.50
2018-04-09T05:46:48.866Z,84.50
2018-04-09T05:49:16.407Z,85.10
2018-04-09T05:51:43.966Z,84.90
2018-04-09T05:54:11.495Z,85.40
2018-04-09T05:56:39.072Z,84.60
2018-04-09T05:59:07.480Z,84.60
2018-04-09T06:01:35.038Z,84.60
2018-04-09T06:04:02.598Z,84.40
2018-04-09T06:06:30.123Z,84.60
2018-04-09T06:08:57.696Z,85.40
2018-04-09T06:11:25.218Z,85.20
2018-04-09T06:13:52.786Z,85.10
2018-04-09T06:16:20.456Z,85.30
2018-04-09T06:18:48.019Z,85.10
2018-04-09T06:21:16.311Z,85.60
2018-04-09T06:23:43.839Z,85.60
2018-04-09T06:26:12.155Z,83.40
2018-04-09T06:28:40.646Z,83.40
2018-04-09T06:31:08.197Z,83.70
2018-04-09T06:33:35.719Z,84.20
2018-04-09T06:36:04.269Z,84.50
2018-04-09T06:38:31.820Z,83.60
2018-04-09T06:40:59.380Z,83.70
2018-04-09T06:43:26.929Z,83.80
2018-04-09T06:45:54.461Z,82.90
2018-04-09T06:48:22.015Z,82.30
2018-04-09T06:50:50.306Z,81.90
2018-04-09T06:53:17.883Z,81.90
2018-04-09T06:55:45.417Z,82.00
2018-04-09T06:58:12.979Z,81.90
2018-04-09T07:00:40.502Z,81.60
2018-04-09T07:03:08.079Z,81.60
2018-04-09T07:05:36.389Z,81.40
2018-04-09T07:08:04.103Z,81.40
2018-04-09T07:10:31.670Z,81.40
2018-04-09T07:12:59.205Z,80.90
2018-04-09T07:15:27.730Z,81.00
2018-04-09T07:17:55.255Z,81.00
2018-04-09T07:20:22.808Z,81.00
2018-04-09T07:22:50.338Z,80.50
2018-04-09T07:25:17.885Z,79.60
2018-04-09T07:27:45.458Z,78.70
2018-04-09T07:30:13.006Z,77.90
2018-04-09T07:32:40.554Z,77.70
2018-04-09T07:35:08.095Z,77.10
2018-04-09T07:37:36.414Z,76.80
2018-04-09T07:40:03.950Z,76.70
2018-04-09T07:42:31.512Z,75.60
2018-04-09T07:44:59.047Z,76.20
2018-04-09T07:47:27.528Z,76.80
2018-04-09T07:49:55.843Z,75.70
2018-04-09T07:52:23.367Z,75.70
2018-04-09T07:54:50.919Z,74.90
2018-04-09T07:57:19.230Z,75.30
2018-04-09T07:59:46.794Z,75.30
2018-04-09T08:02:14.314Z,76.30
2018-04-09T08:04:41.873Z,76.30
2018-04-09T08:07:10.168Z,75.60
2018-04-09T08:09:37.714Z,75.60
2018-04-09T08:12:06.042Z,75.10
2018-04-09T08:14:33.598Z,75.10
2018-04-09T08:17:01.156Z,74.00
2018-04-09T08:19:28.729Z,72.60
2018-04-09T08:21:56.273Z,72.20
2018-04-09T08:24:23.809Z,71.90
2018-04-09T08:26:51.394Z,71.70
2018-04-09T08:29:18.930Z,71.40
2018-04-09T08:31:47.452Z,71.20
2018-04-09T08:34:15.030Z,71.70
2018-04-09T08:36:42.571Z,71.80
2018-04-09T08:39:10.132Z,71.10
2018-04-09T08:41:37.662Z,70.90
2018-04-09T08:44:05.218Z,69.30
2018-04-09T08:46:32.746Z,68.20
2018-04-09T08:49:01.069Z,69.20
2018-04-09T08:51:28.595Z,69.20
2018-04-09T08:53:56.118Z,69.80
2018-04-09T08:56:23.714Z,69.20
2018-04-09T08:58:52.205Z,68.50
2018-04-09T09:01:19.780Z,64.50
2018-04-09T09:03:48.272Z,64.20
2018-04-09T09:06:15.835Z,64.10
2018-04-09T09:08:43.410Z,62.20
2018-04-09T09:11:10.929Z,61.70
2018-04-09T09:13:38.487Z,59.50
2018-04-09T09:16:06.017Z,57.90
2018-04-09T09:18:33.575Z,57.60
2018-04-09T09:21:01.129Z,58.40
2018-04-09T09:23:28.687Z,55.80
2018-04-09T09:25:56.990Z,58.20
2018-04-09T09:28:25.123Z,58.10
2018-04-09T09:30:53.773Z,58.80
2018-04-09T09:33:21.302Z,58.80
2018-04-09T09:35:48.870Z,58.70
2018-04-09T09:38:16.399Z,58.00
2018-04-09T09:40:44.723Z,58.80
2018-04-09T09:43:13.204Z,58.20
2018-04-09T09:45:40.756Z,59.40
2018-04-09T09:48:08.279Z,58.90
2018-04-09T09:50:35.858Z,58.60
2018-04-09T09:53:03.379Z,58.80
2018-04-09T09:55:31.678Z,57.20
2018-04-09T09:57:59.239Z,57.20
2018-04-09T10:00:32.342Z,56.20
2018-04-09T10:03:00.925Z,55.80
2018-04-09T10:05:28.473Z,54.70
2018-04-09T10:07:56.027Z,55.50
2018-04-09T10:10:23.563Z,56.20
2018-04-09T10:12:51.472Z,56.70
2018-04-09T10:15:19.962Z,57.30
2018-04-09T10:17:47.492Z,56.30
2018-04-09T10:20:16.989Z,56.20
2018-04-09T10:22:44.538Z,54.90
2018-04-09T10:25:12.102Z,55.70
2018-04-09T10:27:40.400Z,55.10
2018-04-09T10:30:07.977Z,55.10
2018-04-09T10:32:35.509Z,56.90
2018-04-09T10:35:03.066Z,57.40
2018-04-09T10:37:30.595Z,57.50
2018-04-09T10:39:58.123Z,55.50
2018-04-09T10:42:25.682Z,54.20
2018-04-09T10:44:54.160Z,54.10
2018-04-09T10:47:21.719Z,52.90
2018-04-09T10:49:50.206Z,51.00
2018-04-09T10:52:17.759Z,51.30
2018-04-09T10:54:45.287Z,50.90
2018-04-09T10:57:12.841Z,51.10
2018-04-09T10:59:40.375Z,51.90
2018-04-09T11:02:08.666Z,52.50
2018-04-09T11:04:36.210Z,52.50
2018-04-09T11:07:04.507Z,52.40
2018-04-09T11:09:32.095Z,52.10
2018-04-09T11:11:59.623Z,51.80
2018-04-09T11:14:27.183Z,51.80
2018-04-09T11:16:55.483Z,50.70
2018-04-09T11:19:23.040Z,50.70
2018-04-09T11:21:50.564Z,51.20
2018-04-09T11:24:18.094Z,50.60
2018-04-09T11:26:45.643Z,53.10
2018-04-09T11:29:13.194Z,53.30
2018-04-09T11:31:40.758Z,54.30
2018-04-09T11:34:09.242Z,52.90
2018-04-09T11:36:36.800Z,52.20
2018-04-09T11:39:04.318Z,53.30
2018-04-09T11:41:31.890Z,54.50
2018-04-09T11:43:59.443Z,55.30
2018-04-09T11:46:26.988Z,54.50
2018-04-09T11:48:55.310Z,54.40
2018-04-09T11:51:22.842Z,54.30
2018-04-09T11:53:50.403Z,53.10
2018-04-09T11:56:17.940Z,54.50
2018-04-09T11:58:46.260Z,55.50
2018-04-09T12:01:13.792Z,55.50
2018-04-09T12:03:41.313Z,55.60
2018-04-09T12:06:08.880Z,54.60
2018-04-09T12:08:36.400Z,55.70
2018-04-09T12:11:05.904Z,55.50
2018-04-09T12:13:34.388Z,55.70
2018-04-09T12:16:01.947Z,53.90
2018-04-09T12:18:29.472Z,54.00
2018-04-09T12:20:57.033Z,53.00
2018-04-09T12:23:24.558Z,51.90
2018-04-09T12:25:53.044Z,51.50
2018-04-09T12:28:21.384Z,53.10
2018-04-09T12:30:48.917Z,53.00
2018-04-09T12:33:16.467Z,53.30
2018-04-09T12:35:43.984Z,53.50
2018-04-09T12:38:11.524Z,52.30
2018-04-09T12:40:39.054Z,53.10
2018-04-09T12:43:06.609Z,51.00
2018-04-09T12:45:34.138Z,52.70
2018-04-09T12:48:01.665Z,50.90
2018-04-09T12:50:29.215Z,48.80
2018-04-09T12:52:56.744Z,50.10
2018-04-09T12:55:24.297Z,50.20
2018-04-09T12:57:51.805Z,51.20
2018-04-09T13:00:19.360Z,52.80
2018-04-09T13:02:46.889Z,51.80
2018-04-09T13:05:14.414Z,52.10
2018-04-09T13:07:42.016Z,52.90
2018-04-09T13:10:09.579Z,52.50
2018-04-09T13:12:37.101Z,54.30
2018-04-09T13:15:05.624Z,54.60
2018-04-09T13:17:33.192Z,56.60
2018-04-09T13:20:00.720Z,55.70
2018-04-09T13:22:28.250Z,56.10
2018-04-09T13:24:57.747Z,54.90
2018-04-09T13:27:25.271Z,52.40
2018-04-09T13:29:52.814Z,50.70
2018-04-09T13:32:20.359Z,50.90
2018-04-09T13:34:47.911Z,52.50
2018-04-09T13:37:15.436Z,52.80
2018-04-09T13:39:45.708Z,52.20
2018-04-09T13:42:13.267Z,52.20
2018-04-09T13:44:40.798Z,53.50
2018-04-09T13:47:08.353Z,54.20
2018-04-09T13:49:35.877Z,52.40
2018-04-09T13:52:03.433Z,53.00
2018-04-09T13:54:31.743Z,52.40
2018-04-09T13:57:00.103Z,50.00
2018-04-09T13:59:27.636Z,49.90
2018-04-09T14:01:55.188Z,47.90
2018-04-09T14:04:22.931Z,47.20
2018-04-09T14:06:50.598Z,47.20
2018-04-09T14:09:18.462Z,47.30
2018-04-09T14:11:46.948Z,48.00
2018-04-09T14:14:16.434Z,46.80
2018-04-09T14:16:43.960Z,46.90
2018-04-09T14:19:18.178Z,46.00
2018-04-09T14:21:45.709Z,47.80
2018-04-09T14:24:13.260Z,49.60
2018-04-09T14:26:40.797Z,51.20
2018-04-09T14:29:08.329Z,50.20
2018-04-09T14:31:36.650Z,51.00
2018-04-09T14:34:04.178Z,51.00
2018-04-09T14:36:33.712Z,49.80
2018-04-09T14:39:01.236Z,49.90
2018-04-09T14:41:29.556Z,49.20
2018-04-09T14:43:58.041Z,49.20
2018-04-09T14:46:27.096Z,48.60
2018-04-09T14:48:54.635Z,47.90
2018-04-09T14:51:22.166Z,48.10
2018-04-09T14:53:49.725Z,48.30
2018-04-09T14:56:18.275Z,48.20
2018-04-09T14:58:47.682Z,49.00
2018-04-09T15:01:16.174Z,49.00
2018-04-09T15:03:43.729Z,48.80
2018-04-09T15:06:12.221Z,48.70
2018-04-09T15:08:39.771Z,49.00
2018-04-09T15:11:07.292Z,50.50
2018-04-09T15:13:34.814Z,50.70
2018-04-09T15:16:02.391Z,50.90
2018-04-09T15:18:30.676Z,50.60
2018-04-09T15:20:58.992Z,50.10
2018-04-09T15:23:26.522Z,50.00
2018-04-09T15:25:54.263Z,50.80
2018-04-09T15:28:21.838Z,50.90
2018-04-09T15:30:50.160Z,51.90
2018-04-09T15:33:17.719Z,51.90
2018-04-09T15:35:46.198Z,52.10
2018-04-09T15:38:13.753Z,51.40
2018-04-09T15:40:42.248Z,51.90
2018-04-09T15:43:09.810Z,52.90
2018-04-09T15:45:37.340Z,54.00
2018-04-09T15:48:04.905Z,55.10
2018-04-09T15:50:32.429Z,56.30
2018-04-09T15:53:00.760Z,58.30
2018-04-09T15:55:28.301Z,58.30
2018-04-09T15:57:55.824Z,58.00
2018-04-09T16:00:24.148Z,60.00
2018-04-09T16:02:51.684Z,59.90
2018-04-09T16:05:19.233Z,60.50
2018-04-09T16:07:46.760Z,60.70
2018-04-09T16:10:14.322Z,60.80
2018-04-09T16:12:42.613Z,59.80
2018-04-09T16:15:10.963Z,59.80
2018-04-09T16:20:39.928Z,60.20
2018-04-09T16:23:08.408Z,60.50
2018-04-09T16:25:35.928Z,59.40
2018-04-09T16:28:03.493Z,59.90
2018-04-09T16:30:31.026Z,60.50
2018-04-09T16:32:58.588Z,60.30
2018-04-09T16:35:26.929Z,59.90
2018-04-09T16:37:56.477Z,59.90
2018-04-09T16:40:24.193Z,59.80
2018-04-09T16:42:51.745Z,60.10
2018-04-09T16:45:19.292Z,60.20
2018-04-09T16:47:46.941Z,59.80
2018-04-09T16:50:15.272Z,60.50
2018-04-09T16:52:42.808Z,60.40
2018-04-09T16:55:10.366Z,60.80
2018-04-09T16:57:37.908Z,62.00
2018-04-09T17:00:05.484Z,62.10
2018-04-09T17:02:33.005Z,62.00
2018-04-09T17:05:02.582Z,62.50
2018-04-09T17:07:30.106Z,62.50
2018-04-09T17:09:58.576Z,63.40
2018-04-09T17:12:26.145Z,64.20
2018-04-09T17:14:53.672Z,65.70
2018-04-09T17:17:21.992Z,69.00
2018-04-09T17:19:49.569Z,69.00
2018-04-09T17:22:17.115Z,70.10
2018-04-09T17:24:44.640Z,70.10
2018-04-09T17:27:12.209Z,70.00
2018-04-09T17:29:39.745Z,69.30
2018-04-09T17:32:09.020Z,70.20
2018-04-09T17:34:36.589Z,70.10
2018-04-09T17:37:04.122Z,70.90
2018-04-09T17:39:31.692Z,71.00
2018-04-09T17:41:59.233Z,71.50
2018-04-09T17:44:26.791Z,71.70
2018-04-09T17:46:54.315Z,72.10
2018-04-09T17:49:21.943Z,71.60
2018-04-09T17:51:49.469Z,71.70
2018-04-09T17:54:17.981Z,71.70
2018-04-09T17:56:45.550Z,71.20
2018-04-09T17:59:13.841Z,72.40
2018-04-09T18:01:41.414Z,72.30
2018-04-09T18:04:08.932Z,73.30
2018-04-09T18:06:36.499Z,73.30
2018-04-09T18:09:06.755Z,74.10
2018-04-09T18:11:34.326Z,74.10
2018-04-09T18:14:01.852Z,74.60
2018-04-09T18:16:30.160Z,73.80
2018-04-09T18:18:57.715Z,73.80
2018-04-09T18:21:25.249Z,74.60
2018-04-09T18:23:53.564Z,74.00
2018-04-09T18:26:21.100Z,74.00
2018-04-09T18:28:48.649Z,73.80
2018-04-09T18:31:16.936Z,73.70
2018-04-09T18:33:44.498Z,73.60
2018-04-09T18:36:12.035Z,74.30
2018-04-09T18:38:39.553Z,73.00
2018-04-09T18:41:07.113Z,74.10
2018-04-09T18:43:34.646Z,75.00
2018-04-09T18:46:02.204Z,77.60
2018-04-09T18:48:29.734Z,79.90
2018-04-09T18:50:58.056Z,80.70
2018-04-09T18:53:25.599Z,80.60
2018-04-09T18:55:53.157Z,80.90
2018-04-09T18:58:20.691Z,81.00
2018-04-09T19:00:48.228Z,82.20
2018-04-09T19:03:15.792Z,82.70
2018-04-09T19:05:44.106Z,78.90
2018-04-09T19:08:11.671Z,78.90
2018-04-09T19:10:39.200Z,80.00
2018-04-09T19:13:07.510Z,75.10
2018-04-09T19:15:35.037Z,74.90
2018-04-09T19:18:03.361Z,75.10
2018-04-09T19:20:30.887Z,75.00
2018-04-09T19:22:58.410Z,71.50
2018-04-09T19:25:25.973Z,73.70
2018-04-09T19:27:53.491Z,77.30
2018-04-09T19:30:21.045Z,79.20
2018-04-09T19:32:48.578Z,80.10
2018-04-09T19:35:16.138Z,80.70
2018-04-09T19:37:49.354Z,81.40
2018-04-09T19:40:22.573Z,81.30
2018-04-09T19:48:31.964Z,82.00
2018-04-09T19:51:00.283Z,79.10
2018-04-09T19:53:27.809Z,78.80
2018-04-09T19:55:55.350Z,79.40
2018-04-09T19:58:22.901Z,79.60
2018-04-09T20:00:51.226Z,78.20
2018-04-09T20:03:18.920Z,78.20
2018-04-09T20:05:46.493Z,78.10
2018-04-09T20:08:14.032Z,78.80
2018-04-09T20:10:42.537Z,79.20
2018-04-09T20:13:10.075Z,79.70
2018-04-09T20:15:37.636Z,79.50
2018-04-09T20:18:05.171Z,80.00
2018-04-09T20:20:32.709Z,80.70
2018-04-09T20:23:02.963Z,80.40
2018-04-09T20:25:30.492Z,80.40
2018-04-09T20:27:58.046Z,81.00
2018-04-09T20:30:25.570Z,81.10
2018-04-09T20:32:53.115Z,81.10
2018-04-09T20:35:20.752Z,81.20
2018-04-09T20:37:48.387Z,81.20
2018-04-09T20:40:15.963Z,81.50
2018-04-09T20:42:43.495Z,82.40
2018-04-09T20:45:11.023Z,83.20
2018-04-09T20:47:38.594Z,84.10
2018-04-09T20:50:07.496Z,84.60
2018-04-09T20:52:36.999Z,85.20
2018-04-09T20:55:04.543Z,85.60
2018-04-09T20:57:32.080Z,86.40
2018-04-09T20:59:59.633Z,86.60
2018-04-09T21:02:27.180Z,87.00
2018-04-09T21:04:54.747Z,87.10
2018-04-09T21:07:22.278Z,86.90
2018-04-09T21:09:49.824Z,86.90
2018-04-09T21:12:18.105Z,86.70
2018-04-09T21:14:46.397Z,87.00
2018-04-09T21:17:13.996Z,87.00
2018-04-09T21:19:41.590Z,87.50
2018-04-09T21:22:10.881Z,88.30
2018-04-09T21:24:38.474Z,88.30
2018-04-09T21:27:06.000Z,88.50
2018-04-09T21:29:33.544Z,88.70
2018-04-09T21:32:02.033Z,88.80
2018-04-09T21:34:29.587Z,89.10
2018-04-09T21:36:57.109Z,89.10
2018-04-09T21:39:24.636Z,89.00
2018-04-09T21:41:53.904Z,88.40
2018-04-09T21:44:21.442Z,88.30
2018-04-09T21:46:48.985Z,88.30
2018-04-09T21:49:16.504Z,88.60
2018-04-09T21:51:45.808Z,88.40
2018-04-09T21:54:13.332Z,88.40
2018-04-09T21:56:41.830Z,88.50
2018-04-09T21:59:10.157Z,88.80
2018-04-09T22:01:37.686Z,88.00
2018-04-09T22:04:05.247Z,87.90
2018-04-09T22:06:32.784Z,88.20
2018-04-09T22:09:00.313Z,87.60
2018-04-09T22:11:27.863Z,87.30
2018-04-09T22:13:56.346Z,87.60
2018-04-09T22:16:23.900Z,88.20
2018-04-09T22:18:51.426Z,89.30
2018-04-09T22:21:18.957Z,89.80
2018-04-09T22:23:46.508Z,89.80
2018-04-09T22:26:14.038Z,89.70
2018-04-09T22:28:43.565Z,89.60
2018-04-09T22:31:12.070Z,89.60
2018-04-09T22:33:40.365Z,89.80
2018-04-09T22:36:07.940Z,89.80
2018-04-09T22:38:35.457Z,89.80
2018-04-09T22:41:03.016Z,90.20
2018-04-09T22:43:30.538Z,90.00
2018-04-09T22:45:58.097Z,90.00
2018-04-09T22:48:25.640Z,89.90
2018-04-09T22:50:53.161Z,89.70
2018-04-09T22:53:20.705Z,89.40
2018-04-09T22:55:48.259Z,89.60
2018-04-09T22:58:15.812Z,89.50
2018-04-09T23:00:44.326Z,90.20
2018-04-09T23:03:11.850Z,90.50
2018-04-09T23:05:39.409Z,90.30
2018-04-09T23:08:06.931Z,90.50
2018-04-09T23:10:34.583Z,90.30
2018-04-09T23:13:02.130Z,90.40
2018-04-09T23:15:30.700Z,90.40
2018-04-09T23:17:58.227Z,90.70
2018-04-09T23:20:25.749Z,90.80
2018-04-09T23:22:54.293Z,91.10
2018-04-09T23:25:21.814Z,91.50
2018-04-09T23:27:49.368Z,91.60
2018-04-09T23:30:16.908Z,91.50
2018-04-09T23:32:45.376Z,91.20
2018-04-09T23:35:12.934Z,91.10
2018-04-09T23:37:40.451Z,91.10
2018-04-09T23:40:08.005Z,91.00
2018-04-09T23:42:37.260Z,90.50
2018-04-09T23:45:05.759Z,90.50
2018-04-09T23:47:33.314Z,90.50
2018-04-09T23:50:01.069Z,90.60
2018-04-09T23:52:28.623Z,90.60
2018-04-09T23:54:57.145Z,91.20
2018-04-09T23:57:24.704Z,91.30
2018-04-09T23:59:52.225Z,91.60
